sensor_id;sensor_type;location;lat;lon;timestamp;P1;durP1;ratioP1;P2;durP2;ratioP2
61938;SDS011;47897;50.322;18.892;2023-03-17T00:01:08;292.70;;;116.80;;
61938;SDS011;47897;50.322;18.892;2023-03-17T00:03:36;280.40;;;114.70;;
61938;SDS011;47897;50.322;18.892;2023-03-17T00:06:03;296.20;;;121.90;;
61938;SDS011;47897;50.322;18.892;2023-03-17T00:08:31;272.70;;;118.50;;
61938;SDS011;47897;50.322;18.892;2023-03-17T00:10:59;284.30;;;118.90;;
61938;SDS011;47897;50.322;18.892;2023-03-17T00:13:26;271.50;;;116.80;;
61938;SDS011;47897;50.322;18.892;2023-03-17T00:16:00;290.40;;;115.20;;
61938;SDS011;47897;50.322;18.892;2023-03-17T00:18:28;279.00;;;116.60;;
61938;SDS011;47897;50.322;18.892;2023-03-17T00:20:56;274.60;;;116.90;;
61938;SDS011;47897;50.322;18.892;2023-03-17T00:23:24;272.70;;;115.30;;
61938;SDS011;47897;50.322;18.892;2023-03-17T00:25:51;265.50;;;113.60;;
61938;SDS011;47897;50.322;18.892;2023-03-17T00:28:21;270.70;;;115.10;;
61938;SDS011;47897;50.322;18.892;2023-03-17T00:30:49;260.40;;;109.70;;
61938;SDS011;47897;50.322;18.892;2023-03-17T00:33:17;265.70;;;107.70;;
61938;SDS011;47897;50.322;18.892;2023-03-17T00:35:44;262.30;;;108.70;;
61938;SDS011;47897;50.322;18.892;2023-03-17T00:38:15;260.10;;;108.30;;
61938;SDS011;47897;50.322;18.892;2023-03-17T00:40:42;252.10;;;107.90;;
61938;SDS011;47897;50.322;18.892;2023-03-17T00:43:10;257.70;;;109.30;;
61938;SDS011;47897;50.322;18.892;2023-03-17T00:45:36;262.10;;;111.60;;
61938;SDS011;47897;50.322;18.892;2023-03-17T00:48:16;248.80;;;106.40;;
61938;SDS011;47897;50.322;18.892;2023-03-17T00:50:44;250.10;;;107.20;;
61938;SDS011;47897;50.322;18.892;2023-03-17T00:53:12;241.80;;;105.60;;
61938;SDS011;47897;50.322;18.892;2023-03-17T00:55:40;245.80;;;102.70;;
61938;SDS011;47897;50.322;18.892;2023-03-17T01:00:37;240.90;;;99.90;;
61938;SDS011;47897;50.322;18.892;2023-03-17T01:03:07;239.80;;;105.00;;
61938;SDS011;47897;50.322;18.892;2023-03-17T01:05:34;246.30;;;100.60;;
61938;SDS011;47897;50.322;18.892;2023-03-17T01:08:01;237.90;;;104.00;;
61938;SDS011;47897;50.322;18.892;2023-03-17T01:10:29;238.20;;;101.20;;
61938;SDS011;47897;50.322;18.892;2023-03-17T01:12:56;226.40;;;99.70;;
61938;SDS011;47897;50.322;18.892;2023-03-17T01:15:24;244.90;;;103.20;;
61938;SDS011;47897;50.322;18.892;2023-03-17T01:17:51;227.10;;;99.50;;
61938;SDS011;47897;50.322;18.892;2023-03-17T01:20:22;237.20;;;99.00;;
61938;SDS011;47897;50.322;18.892;2023-03-17T01:22:49;237.40;;;101.10;;
61938;SDS011;47897;50.322;18.892;2023-03-17T01:25:16;228.90;;;100.40;;
61938;SDS011;47897;50.322;18.892;2023-03-17T01:27:43;233.50;;;98.40;;
61938;SDS011;47897;50.322;18.892;2023-03-17T01:30:34;230.40;;;98.80;;
61938;SDS011;47897;50.322;18.892;2023-03-17T01:32:58;238.30;;;101.30;;
61938;SDS011;47897;50.322;18.892;2023-03-17T01:35:26;245.50;;;104.20;;
61938;SDS011;47897;50.322;18.892;2023-03-17T01:37:55;237.50;;;97.60;;
61938;SDS011;47897;50.322;18.892;2023-03-17T01:40:24;228.00;;;98.30;;
61938;SDS011;47897;50.322;18.892;2023-03-17T01:42:54;225.40;;;99.40;;
61938;SDS011;47897;50.322;18.892;2023-03-17T01:48:11;220.60;;;97.50;;
61938;SDS011;47897;50.322;18.892;2023-03-17T01:50:38;234.60;;;100.70;;
61938;SDS011;47897;50.322;18.892;2023-03-17T01:53:06;223.30;;;102.60;;
61938;SDS011;47897;50.322;18.892;2023-03-17T01:55:33;239.80;;;103.30;;
61938;SDS011;47897;50.322;18.892;2023-03-17T01:58:00;234.30;;;101.10;;
61938;SDS011;47897;50.322;18.892;2023-03-17T02:00:27;221.80;;;97.20;;
61938;SDS011;47897;50.322;18.892;2023-03-17T02:02:55;246.80;;;105.40;;
61938;SDS011;47897;50.322;18.892;2023-03-17T02:05:23;228.70;;;99.90;;
61938;SDS011;47897;50.322;18.892;2023-03-17T02:07:52;222.10;;;99.00;;
61938;SDS011;47897;50.322;18.892;2023-03-17T02:10:19;217.50;;;95.90;;
61938;SDS011;47897;50.322;18.892;2023-03-17T02:12:47;208.70;;;92.40;;
61938;SDS011;47897;50.322;18.892;2023-03-17T02:15:16;188.90;;;83.30;;
61938;SDS011;47897;50.322;18.892;2023-03-17T02:17:42;196.40;;;84.10;;
61938;SDS011;47897;50.322;18.892;2023-03-17T02:22:49;178.20;;;74.30;;
61938;SDS011;47897;50.322;18.892;2023-03-17T02:25:18;182.30;;;77.20;;
61938;SDS011;47897;50.322;18.892;2023-03-17T02:27:47;171.60;;;73.20;;
61938;SDS011;47897;50.322;18.892;2023-03-17T02:30:15;168.40;;;74.60;;
61938;SDS011;47897;50.322;18.892;2023-03-17T02:32:42;172.40;;;74.70;;
61938;SDS011;47897;50.322;18.892;2023-03-17T02:35:08;182.80;;;75.80;;
61938;SDS011;47897;50.322;18.892;2023-03-17T02:37:35;176.30;;;71.00;;
61938;SDS011;47897;50.322;18.892;2023-03-17T02:40:03;160.80;;;70.70;;
61938;SDS011;47897;50.322;18.892;2023-03-17T02:42:31;149.10;;;63.00;;
61938;SDS011;47897;50.322;18.892;2023-03-17T02:44:58;154.10;;;69.40;;
61938;SDS011;47897;50.322;18.892;2023-03-17T02:47:25;149.70;;;67.00;;
61938;SDS011;47897;50.322;18.892;2023-03-17T02:49:53;150.70;;;65.10;;
61938;SDS011;47897;50.322;18.892;2023-03-17T02:52:20;143.30;;;64.00;;
61938;SDS011;47897;50.322;18.892;2023-03-17T02:54:46;144.70;;;61.40;;
61938;SDS011;47897;50.322;18.892;2023-03-17T02:57:13;135.00;;;59.80;;
61938;SDS011;47897;50.322;18.892;2023-03-17T02:59:39;128.80;;;57.80;;
61938;SDS011;47897;50.322;18.892;2023-03-17T03:02:06;128.90;;;58.90;;
61938;SDS011;47897;50.322;18.892;2023-03-17T03:04:33;128.90;;;57.40;;
61938;SDS011;47897;50.322;18.892;2023-03-17T03:07:01;120.20;;;58.50;;
61938;SDS011;47897;50.322;18.892;2023-03-17T03:09:28;128.80;;;57.30;;
61938;SDS011;47897;50.322;18.892;2023-03-17T03:11:55;131.60;;;59.10;;
61938;SDS011;47897;50.322;18.892;2023-03-17T03:14:22;132.80;;;58.00;;
61938;SDS011;47897;50.322;18.892;2023-03-17T03:16:48;124.40;;;56.60;;
61938;SDS011;47897;50.322;18.892;2023-03-17T03:19:15;122.40;;;55.70;;
61938;SDS011;47897;50.322;18.892;2023-03-17T03:21:43;118.00;;;54.40;;
61938;SDS011;47897;50.322;18.892;2023-03-17T03:24:09;119.00;;;55.10;;
61938;SDS011;47897;50.322;18.892;2023-03-17T03:26:37;112.50;;;51.80;;
61938;SDS011;47897;50.322;18.892;2023-03-17T03:29:03;115.80;;;52.40;;
61938;SDS011;47897;50.322;18.892;2023-03-17T03:31:30;101.70;;;48.20;;
61938;SDS011;47897;50.322;18.892;2023-03-17T03:33:57;105.00;;;49.40;;
61938;SDS011;47897;50.322;18.892;2023-03-17T03:36:23;114.00;;;50.50;;
61938;SDS011;47897;50.322;18.892;2023-03-17T03:38:52;115.30;;;51.70;;
61938;SDS011;47897;50.322;18.892;2023-03-17T03:41:18;113.90;;;53.30;;
61938;SDS011;47897;50.322;18.892;2023-03-17T03:43:45;111.20;;;50.90;;
61938;SDS011;47897;50.322;18.892;2023-03-17T03:46:11;101.60;;;50.50;;
61938;SDS011;47897;50.322;18.892;2023-03-17T03:48:38;122.60;;;52.20;;
61938;SDS011;47897;50.322;18.892;2023-03-17T03:51:05;105.90;;;49.20;;
61938;SDS011;47897;50.322;18.892;2023-03-17T03:53:32;98.60;;;48.70;;
61938;SDS011;47897;50.322;18.892;2023-03-17T03:55:58;99.50;;;46.00;;
61938;SDS011;47897;50.322;18.892;2023-03-17T03:58:25;97.90;;;47.40;;
61938;SDS011;47897;50.322;18.892;2023-03-17T04:00:51;98.70;;;44.60;;
61938;SDS011;47897;50.322;18.892;2023-03-17T04:03:18;93.80;;;45.80;;
61938;SDS011;47897;50.322;18.892;2023-03-17T04:05:45;96.40;;;46.20;;
61938;SDS011;47897;50.322;18.892;2023-03-17T04:08:11;101.10;;;46.00;;
61938;SDS011;47897;50.322;18.892;2023-03-17T04:10:38;97.00;;;43.60;;
61938;SDS011;47897;50.322;18.892;2023-03-17T04:13:05;94.00;;;46.00;;
61938;SDS011;47897;50.322;18.892;2023-03-17T04:15:32;85.10;;;41.90;;
61938;SDS011;47897;50.322;18.892;2023-03-17T04:17:59;95.80;;;44.20;;
61938;SDS011;47897;50.322;18.892;2023-03-17T04:20:25;93.40;;;45.10;;
61938;SDS011;47897;50.322;18.892;2023-03-17T04:22:52;89.90;;;44.60;;
61938;SDS011;47897;50.322;18.892;2023-03-17T04:25:19;88.70;;;43.50;;
61938;SDS011;47897;50.322;18.892;2023-03-17T04:27:45;105.60;;;46.30;;
61938;SDS011;47897;50.322;18.892;2023-03-17T04:30:12;105.30;;;45.50;;
61938;SDS011;47897;50.322;18.892;2023-03-17T04:32:40;94.70;;;45.20;;
61938;SDS011;47897;50.322;18.892;2023-03-17T04:35:07;99.30;;;49.40;;
61938;SDS011;47897;50.322;18.892;2023-03-17T04:37:36;119.50;;;50.10;;
61938;SDS011;47897;50.322;18.892;2023-03-17T04:40:05;115.70;;;52.00;;
61938;SDS011;47897;50.322;18.892;2023-03-17T04:42:35;111.10;;;49.00;;
61938;SDS011;47897;50.322;18.892;2023-03-17T04:45:02;109.40;;;49.00;;
61938;SDS011;47897;50.322;18.892;2023-03-17T04:47:29;105.10;;;48.50;;
61938;SDS011;47897;50.322;18.892;2023-03-17T04:49:56;95.20;;;44.50;;
61938;SDS011;47897;50.322;18.892;2023-03-17T04:52:23;101.80;;;45.00;;
61938;SDS011;47897;50.322;18.892;2023-03-17T04:54:49;94.50;;;45.30;;
61938;SDS011;47897;50.322;18.892;2023-03-17T04:57:16;92.40;;;43.40;;
61938;SDS011;47897;50.322;18.892;2023-03-17T04:59:44;95.10;;;43.30;;
61938;SDS011;47897;50.322;18.892;2023-03-17T05:02:12;101.90;;;46.70;;
61938;SDS011;47897;50.322;18.892;2023-03-17T05:04:39;115.10;;;52.60;;
61938;SDS011;47897;50.322;18.892;2023-03-17T05:07:06;106.70;;;49.40;;
61938;SDS011;47897;50.322;18.892;2023-03-17T05:09:32;94.00;;;47.60;;
61938;SDS011;47897;50.322;18.892;2023-03-17T05:11:59;93.30;;;44.20;;
61938;SDS011;47897;50.322;18.892;2023-03-17T05:14:26;85.60;;;42.40;;
61938;SDS011;47897;50.322;18.892;2023-03-17T05:16:52;88.40;;;40.80;;
61938;SDS011;47897;50.322;18.892;2023-03-17T05:19:19;94.40;;;42.00;;
61938;SDS011;47897;50.322;18.892;2023-03-17T05:21:46;88.20;;;40.30;;
61938;SDS011;47897;50.322;18.892;2023-03-17T05:24:13;81.50;;;40.80;;
61938;SDS011;47897;50.322;18.892;2023-03-17T05:26:39;79.50;;;39.20;;
61938;SDS011;47897;50.322;18.892;2023-03-17T05:29:06;77.20;;;38.60;;
61938;SDS011;47897;50.322;18.892;2023-03-17T05:31:34;77.90;;;38.60;;
61938;SDS011;47897;50.322;18.892;2023-03-17T05:34:02;72.70;;;36.90;;
61938;SDS011;47897;50.322;18.892;2023-03-17T05:36:30;78.20;;;37.90;;
61938;SDS011;47897;50.322;18.892;2023-03-17T05:38:57;73.70;;;35.20;;
61938;SDS011;47897;50.322;18.892;2023-03-17T05:41:24;67.10;;;35.40;;
61938;SDS011;47897;50.322;18.892;2023-03-17T05:43:51;61.80;;;33.60;;
61938;SDS011;47897;50.322;18.892;2023-03-17T05:46:18;74.00;;;36.60;;
61938;SDS011;47897;50.322;18.892;2023-03-17T05:48:44;62.20;;;33.10;;
61938;SDS011;47897;50.322;18.892;2023-03-17T05:51:12;62.20;;;32.10;;
61938;SDS011;47897;50.322;18.892;2023-03-17T05:53:39;63.40;;;31.40;;
61938;SDS011;47897;50.322;18.892;2023-03-17T05:56:06;57.00;;;31.90;;
61938;SDS011;47897;50.322;18.892;2023-03-17T05:58:33;61.60;;;31.50;;
61938;SDS011;47897;50.322;18.892;2023-03-17T06:01:00;66.20;;;32.90;;
61938;SDS011;47897;50.322;18.892;2023-03-17T06:03:27;59.20;;;31.80;;
61938;SDS011;47897;50.322;18.892;2023-03-17T06:05:54;61.60;;;33.50;;
61938;SDS011;47897;50.322;18.892;2023-03-17T06:08:20;59.20;;;33.20;;
61938;SDS011;47897;50.322;18.892;2023-03-17T06:10:47;69.50;;;34.10;;
61938;SDS011;47897;50.322;18.892;2023-03-17T06:13:14;62.10;;;32.40;;
61938;SDS011;47897;50.322;18.892;2023-03-17T06:15:41;59.20;;;32.30;;
61938;SDS011;47897;50.322;18.892;2023-03-17T06:18:12;60.00;;;30.50;;
61938;SDS011;47897;50.322;18.892;2023-03-17T06:20:39;58.00;;;30.80;;
61938;SDS011;47897;50.322;18.892;2023-03-17T06:23:07;56.70;;;30.30;;
61938;SDS011;47897;50.322;18.892;2023-03-17T06:25:34;58.10;;;30.10;;
61938;SDS011;47897;50.322;18.892;2023-03-17T06:28:01;61.50;;;30.70;;
61938;SDS011;47897;50.322;18.892;2023-03-17T06:30:30;57.80;;;29.50;;
61938;SDS011;47897;50.322;18.892;2023-03-17T06:32:56;60.20;;;31.10;;
61938;SDS011;47897;50.322;18.892;2023-03-17T06:35:23;59.10;;;30.70;;
61938;SDS011;47897;50.322;18.892;2023-03-17T06:37:50;49.70;;;29.80;;
61938;SDS011;47897;50.322;18.892;2023-03-17T06:40:17;55.10;;;28.60;;
61938;SDS011;47897;50.322;18.892;2023-03-17T06:42:44;55.10;;;30.50;;
61938;SDS011;47897;50.322;18.892;2023-03-17T06:45:11;50.90;;;27.90;;
61938;SDS011;47897;50.322;18.892;2023-03-17T06:47:38;53.80;;;28.30;;
61938;SDS011;47897;50.322;18.892;2023-03-17T06:50:05;54.50;;;30.50;;
61938;SDS011;47897;50.322;18.892;2023-03-17T06:52:33;50.10;;;28.90;;
61938;SDS011;47897;50.322;18.892;2023-03-17T06:54:59;58.60;;;29.60;;
61938;SDS011;47897;50.322;18.892;2023-03-17T06:57:26;57.80;;;30.20;;
61938;SDS011;47897;50.322;18.892;2023-03-17T06:59:53;43.00;;;25.50;;
61938;SDS011;47897;50.322;18.892;2023-03-17T07:02:19;52.00;;;27.80;;
61938;SDS011;47897;50.322;18.892;2023-03-17T07:04:46;49.70;;;26.60;;
61938;SDS011;47897;50.322;18.892;2023-03-17T07:07:13;51.20;;;27.30;;
61938;SDS011;47897;50.322;18.892;2023-03-17T07:09:40;47.70;;;27.20;;
61938;SDS011;47897;50.322;18.892;2023-03-17T07:12:07;47.40;;;25.00;;
61938;SDS011;47897;50.322;18.892;2023-03-17T07:14:35;39.60;;;23.60;;
61938;SDS011;47897;50.322;18.892;2023-03-17T07:17:03;46.30;;;24.90;;
61938;SDS011;47897;50.322;18.892;2023-03-17T07:19:30;46.00;;;25.30;;
61938;SDS011;47897;50.322;18.892;2023-03-17T07:21:57;44.80;;;23.20;;
61938;SDS011;47897;50.322;18.892;2023-03-17T07:24:24;45.60;;;23.90;;
61938;SDS011;47897;50.322;18.892;2023-03-17T07:26:51;44.60;;;24.10;;
61938;SDS011;47897;50.322;18.892;2023-03-17T07:29:18;39.60;;;22.90;;
61938;SDS011;47897;50.322;18.892;2023-03-17T07:31:44;44.10;;;22.80;;
61938;SDS011;47897;50.322;18.892;2023-03-17T07:34:11;40.80;;;21.80;;
61938;SDS011;47897;50.322;18.892;2023-03-17T07:36:38;50.00;;;24.70;;
61938;SDS011;47897;50.322;18.892;2023-03-17T07:39:04;39.70;;;22.60;;
61938;SDS011;47897;50.322;18.892;2023-03-17T07:41:31;40.80;;;24.80;;
61938;SDS011;47897;50.322;18.892;2023-03-17T07:44:02;41.20;;;22.20;;
61938;SDS011;47897;50.322;18.892;2023-03-17T07:46:29;42.60;;;22.90;;
61938;SDS011;47897;50.322;18.892;2023-03-17T07:48:56;38.80;;;22.80;;
61938;SDS011;47897;50.322;18.892;2023-03-17T07:51:23;31.50;;;19.50;;
61938;SDS011;47897;50.322;18.892;2023-03-17T07:53:53;41.80;;;21.90;;
61938;SDS011;47897;50.322;18.892;2023-03-17T07:56:26;35.00;;;19.40;;
61938;SDS011;47897;50.322;18.892;2023-03-17T07:58:52;40.80;;;21.30;;
61938;SDS011;47897;50.322;18.892;2023-03-17T08:01:19;40.60;;;21.20;;
61938;SDS011;47897;50.322;18.892;2023-03-17T08:03:46;34.30;;;18.10;;
61938;SDS011;47897;50.322;18.892;2023-03-17T08:06:13;35.10;;;18.00;;
61938;SDS011;47897;50.322;18.892;2023-03-17T08:08:39;30.10;;;17.30;;
61938;SDS011;47897;50.322;18.892;2023-03-17T08:11:06;29.60;;;16.60;;
61938;SDS011;47897;50.322;18.892;2023-03-17T08:13:33;23.50;;;13.10;;
61938;SDS011;47897;50.322;18.892;2023-03-17T08:16:00;15.50;;;9.90;;
61938;SDS011;47897;50.322;18.892;2023-03-17T08:18:27;21.00;;;10.30;;
61938;SDS011;47897;50.322;18.892;2023-03-17T08:20:54;17.50;;;10.50;;
61938;SDS011;47897;50.322;18.892;2023-03-17T08:23:20;16.30;;;9.90;;
61938;SDS011;47897;50.322;18.892;2023-03-17T08:25:47;17.90;;;9.60;;
61938;SDS011;47897;50.322;18.892;2023-03-17T08:28:14;17.20;;;10.20;;
61938;SDS011;47897;50.322;18.892;2023-03-17T08:30:41;17.00;;;9.90;;
61938;SDS011;47897;50.322;18.892;2023-03-17T08:33:09;17.20;;;8.90;;
61938;SDS011;47897;50.322;18.892;2023-03-17T08:35:38;15.00;;;8.30;;
61938;SDS011;47897;50.322;18.892;2023-03-17T08:38:05;14.80;;;9.60;;
61938;SDS011;47897;50.322;18.892;2023-03-17T08:40:33;14.80;;;8.70;;
61938;SDS011;47897;50.322;18.892;2023-03-17T08:43:02;16.90;;;10.10;;
61938;SDS011;47897;50.322;18.892;2023-03-17T08:45:29;17.50;;;9.60;;
61938;SDS011;47897;50.322;18.892;2023-03-17T08:47:55;16.20;;;9.60;;
61938;SDS011;47897;50.322;18.892;2023-03-17T08:50:23;18.30;;;10.60;;
61938;SDS011;47897;50.322;18.892;2023-03-17T08:52:49;19.60;;;10.50;;
61938;SDS011;47897;50.322;18.892;2023-03-17T08:55:17;18.50;;;11.50;;
61938;SDS011;47897;50.322;18.892;2023-03-17T08:57:44;18.50;;;9.80;;
61938;SDS011;47897;50.322;18.892;2023-03-17T09:00:15;19.70;;;9.00;;
61938;SDS011;47897;50.322;18.892;2023-03-17T09:02:46;19.80;;;9.50;;
61938;SDS011;47897;50.322;18.892;2023-03-17T09:05:13;16.00;;;8.80;;
61938;SDS011;47897;50.322;18.892;2023-03-17T09:07:40;18.40;;;9.30;;
61938;SDS011;47897;50.322;18.892;2023-03-17T09:10:07;18.30;;;8.90;;
61938;SDS011;47897;50.322;18.892;2023-03-17T09:12:35;18.60;;;10.40;;
61938;SDS011;47897;50.322;18.892;2023-03-17T09:15:03;16.10;;;8.90;;
61938;SDS011;47897;50.322;18.892;2023-03-17T09:17:30;13.50;;;8.20;;
61938;SDS011;47897;50.322;18.892;2023-03-17T09:19:57;17.10;;;8.70;;
61938;SDS011;47897;50.322;18.892;2023-03-17T09:22:24;15.20;;;8.20;;
61938;SDS011;47897;50.322;18.892;2023-03-17T09:24:51;13.40;;;8.60;;
61938;SDS011;47897;50.322;18.892;2023-03-17T09:27:18;12.40;;;8.30;;
61938;SDS011;47897;50.322;18.892;2023-03-17T09:29:45;13.40;;;7.20;;
61938;SDS011;47897;50.322;18.892;2023-03-17T09:32:11;13.10;;;8.60;;
61938;SDS011;47897;50.322;18.892;2023-03-17T09:34:38;13.30;;;7.70;;
61938;SDS011;47897;50.322;18.892;2023-03-17T09:37:05;15.00;;;8.10;;
61938;SDS011;47897;50.322;18.892;2023-03-17T09:39:32;11.80;;;6.70;;
61938;SDS011;47897;50.322;18.892;2023-03-17T09:47:27;18.20;;;8.10;;
61938;SDS011;47897;50.322;18.892;2023-03-17T09:50:02;14.40;;;8.10;;
61938;SDS011;47897;50.322;18.892;2023-03-17T09:52:31;17.80;;;9.90;;
61938;SDS011;47897;50.322;18.892;2023-03-17T09:54:59;15.70;;;9.80;;
61938;SDS011;47897;50.322;18.892;2023-03-17T09:57:32;15.90;;;10.30;;
61938;SDS011;47897;50.322;18.892;2023-03-17T10:00:02;18.80;;;10.10;;
61938;SDS011;47897;50.322;18.892;2023-03-17T10:02:34;19.60;;;11.10;;
61938;SDS011;47897;50.322;18.892;2023-03-17T10:07:41;23.30;;;13.00;;
61938;SDS011;47897;50.322;18.892;2023-03-17T10:10:12;20.80;;;13.30;;
61938;SDS011;47897;50.322;18.892;2023-03-17T10:15:22;23.10;;;13.80;;
61938;SDS011;47897;50.322;18.892;2023-03-17T10:17:50;20.10;;;13.60;;
61938;SDS011;47897;50.322;18.892;2023-03-17T10:25:44;22.70;;;13.60;;
61938;SDS011;47897;50.322;18.892;2023-03-17T10:28:28;21.30;;;12.90;;
61938;SDS011;47897;50.322;18.892;2023-03-17T10:30:56;21.70;;;13.30;;
61938;SDS011;47897;50.322;18.892;2023-03-17T10:33:26;20.40;;;12.10;;
61938;SDS011;47897;50.322;18.892;2023-03-17T10:35:53;26.00;;;13.70;;
61938;SDS011;47897;50.322;18.892;2023-03-17T10:38:20;20.10;;;11.80;;
61938;SDS011;47897;50.322;18.892;2023-03-17T10:40:58;18.80;;;11.10;;
61938;SDS011;47897;50.322;18.892;2023-03-17T10:43:29;16.00;;;11.00;;
61938;SDS011;47897;50.322;18.892;2023-03-17T10:45:57;17.70;;;11.60;;
61938;SDS011;47897;50.322;18.892;2023-03-17T10:48:25;18.20;;;10.70;;
61938;SDS011;47897;50.322;18.892;2023-03-17T10:50:54;18.50;;;10.90;;
61938;SDS011;47897;50.322;18.892;2023-03-17T10:53:22;19.10;;;11.50;;
61938;SDS011;47897;50.322;18.892;2023-03-17T10:55:59;20.10;;;11.70;;
61938;SDS011;47897;50.322;18.892;2023-03-17T10:58:36;19.50;;;12.30;;
61938;SDS011;47897;50.322;18.892;2023-03-17T11:01:06;17.70;;;11.50;;
61938;SDS011;47897;50.322;18.892;2023-03-17T11:03:39;17.70;;;11.60;;
61938;SDS011;47897;50.322;18.892;2023-03-17T11:06:13;16.00;;;10.00;;
61938;SDS011;47897;50.322;18.892;2023-03-17T11:11:30;15.60;;;10.80;;
61938;SDS011;47897;50.322;18.892;2023-03-17T11:14:02;17.50;;;10.40;;
61938;SDS011;47897;50.322;18.892;2023-03-17T11:16:30;20.40;;;11.00;;
61938;SDS011;47897;50.322;18.892;2023-03-17T11:18:57;21.30;;;11.60;;
61938;SDS011;47897;50.322;18.892;2023-03-17T11:31:31;18.50;;;11.20;;
61938;SDS011;47897;50.322;18.892;2023-03-17T11:34:02;16.60;;;11.30;;
61938;SDS011;47897;50.322;18.892;2023-03-17T11:39:04;17.80;;;10.90;;
61938;SDS011;47897;50.322;18.892;2023-03-17T11:41:42;16.50;;;10.80;;
61938;SDS011;47897;50.322;18.892;2023-03-17T11:49:36;14.60;;;9.20;;
61938;SDS011;47897;50.322;18.892;2023-03-17T11:57:04;15.00;;;9.10;;
61938;SDS011;47897;50.322;18.892;2023-03-17T12:04:54;11.00;;;7.70;;
61938;SDS011;47897;50.322;18.892;2023-03-17T12:07:32;12.70;;;8.10;;
61938;SDS011;47897;50.322;18.892;2023-03-17T12:12:36;14.50;;;11.40;;
61938;SDS011;47897;50.322;18.892;2023-03-17T12:15:09;17.90;;;10.20;;
61938;SDS011;47897;50.322;18.892;2023-03-17T12:17:47;16.80;;;11.70;;
61938;SDS011;47897;50.322;18.892;2023-03-17T12:20:15;14.10;;;9.00;;
61938;SDS011;47897;50.322;18.892;2023-03-17T12:22:54;18.70;;;10.10;;
61938;SDS011;47897;50.322;18.892;2023-03-17T12:25:23;12.90;;;7.70;;
61938;SDS011;47897;50.322;18.892;2023-03-17T12:27:58;12.10;;;7.70;;
61938;SDS011;47897;50.322;18.892;2023-03-17T12:30:27;14.60;;;9.40;;
61938;SDS011;47897;50.322;18.892;2023-03-17T12:32:57;16.10;;;9.40;;
61938;SDS011;47897;50.322;18.892;2023-03-17T12:43:17;17.70;;;9.60;;
61938;SDS011;47897;50.322;18.892;2023-03-17T12:45:52;22.00;;;11.30;;
61938;SDS011;47897;50.322;18.892;2023-03-17T12:53:43;16.80;;;9.00;;
61938;SDS011;47897;50.322;18.892;2023-03-17T12:56:17;21.80;;;9.40;;
61938;SDS011;47897;50.322;18.892;2023-03-17T12:58:45;16.80;;;9.10;;
61938;SDS011;47897;50.322;18.892;2023-03-17T13:06:40;15.30;;;8.90;;
61938;SDS011;47897;50.322;18.892;2023-03-17T13:11:54;17.20;;;9.50;;
61938;SDS011;47897;50.322;18.892;2023-03-17T13:14:23;14.90;;;8.30;;
61938;SDS011;47897;50.322;18.892;2023-03-17T13:17:03;17.70;;;10.20;;
61938;SDS011;47897;50.322;18.892;2023-03-17T13:19:31;14.10;;;9.30;;
61938;SDS011;47897;50.322;18.892;2023-03-17T13:24:42;13.50;;;8.50;;
61938;SDS011;47897;50.322;18.892;2023-03-17T13:27:58;8.00;;;6.00;;
61938;SDS011;47897;50.322;18.892;2023-03-17T13:30:40;13.70;;;8.30;;
61938;SDS011;47897;50.322;18.892;2023-03-17T13:32:54;17.70;;;10.50;;
61938;SDS011;47897;50.322;18.892;2023-03-17T13:35:26;12.00;;;8.20;;
61938;SDS011;47897;50.322;18.892;2023-03-17T13:40:30;17.80;;;10.60;;
61938;SDS011;47897;50.322;18.892;2023-03-17T13:45:38;15.00;;;8.30;;
61938;SDS011;47897;50.322;18.892;2023-03-17T13:48:39;14.30;;;9.10;;
61938;SDS011;47897;50.322;18.892;2023-03-17T13:53:26;13.00;;;7.50;;
61938;SDS011;47897;50.322;18.892;2023-03-17T13:56:14;13.40;;;8.90;;
61938;SDS011;47897;50.322;18.892;2023-03-17T14:01:18;12.20;;;8.20;;
61938;SDS011;47897;50.322;18.892;2023-03-17T14:03:46;12.60;;;8.00;;
61938;SDS011;47897;50.322;18.892;2023-03-17T14:06:14;20.20;;;9.90;;
61938;SDS011;47897;50.322;18.892;2023-03-17T14:08:53;15.90;;;8.50;;
61938;SDS011;47897;50.322;18.892;2023-03-17T14:16:30;13.40;;;9.50;;
61938;SDS011;47897;50.322;18.892;2023-03-17T14:19:08;13.30;;;9.10;;
61938;SDS011;47897;50.322;18.892;2023-03-17T14:21:36;14.30;;;8.60;;
61938;SDS011;47897;50.322;18.892;2023-03-17T14:24:13;20.10;;;10.10;;
61938;SDS011;47897;50.322;18.892;2023-03-17T14:26:42;19.60;;;9.20;;
61938;SDS011;47897;50.322;18.892;2023-03-17T14:29:09;14.20;;;8.30;;
61938;SDS011;47897;50.322;18.892;2023-03-17T14:31:39;15.10;;;8.90;;
61938;SDS011;47897;50.322;18.892;2023-03-17T14:34:10;19.00;;;10.30;;
61938;SDS011;47897;50.322;18.892;2023-03-17T14:36:37;17.90;;;10.70;;
61938;SDS011;47897;50.322;18.892;2023-03-17T14:39:04;20.50;;;10.10;;
61938;SDS011;47897;50.322;18.892;2023-03-17T14:41:32;20.30;;;11.20;;
61938;SDS011;47897;50.322;18.892;2023-03-17T14:43:59;17.30;;;10.70;;
61938;SDS011;47897;50.322;18.892;2023-03-17T14:46:31;12.00;;;8.20;;
61938;SDS011;47897;50.322;18.892;2023-03-17T14:51:34;23.00;;;14.00;;
61938;SDS011;47897;50.322;18.892;2023-03-17T14:54:03;15.50;;;9.20;;
61938;SDS011;47897;50.322;18.892;2023-03-17T14:56:31;15.00;;;9.20;;
61938;SDS011;47897;50.322;18.892;2023-03-17T14:59:05;18.30;;;9.70;;
61938;SDS011;47897;50.322;18.892;2023-03-17T15:01:36;17.10;;;10.10;;
61938;SDS011;47897;50.322;18.892;2023-03-17T15:04:10;16.30;;;9.50;;
61938;SDS011;47897;50.322;18.892;2023-03-17T15:06:48;12.30;;;8.10;;
61938;SDS011;47897;50.322;18.892;2023-03-17T15:11:55;16.00;;;9.00;;
61938;SDS011;47897;50.322;18.892;2023-03-17T15:17:22;12.90;;;7.90;;
61938;SDS011;47897;50.322;18.892;2023-03-17T15:19:52;21.10;;;13.70;;
61938;SDS011;47897;50.322;18.892;2023-03-17T15:24:57;15.80;;;10.10;;
61938;SDS011;47897;50.322;18.892;2023-03-17T15:27:24;17.40;;;10.40;;
61938;SDS011;47897;50.322;18.892;2023-03-17T15:29:51;19.70;;;11.60;;
61938;SDS011;47897;50.322;18.892;2023-03-17T15:32:18;21.20;;;14.40;;
61938;SDS011;47897;50.322;18.892;2023-03-17T15:34:47;20.50;;;12.00;;
61938;SDS011;47897;50.322;18.892;2023-03-17T15:37:14;16.40;;;11.20;;
61938;SDS011;47897;50.322;18.892;2023-03-17T15:39:41;18.20;;;13.50;;
61938;SDS011;47897;50.322;18.892;2023-03-17T15:42:08;22.40;;;13.50;;
61938;SDS011;47897;50.322;18.892;2023-03-17T15:44:35;57.10;;;28.20;;
61938;SDS011;47897;50.322;18.892;2023-03-17T15:47:02;21.00;;;12.30;;
61938;SDS011;47897;50.322;18.892;2023-03-17T15:49:29;21.70;;;15.50;;
61938;SDS011;47897;50.322;18.892;2023-03-17T15:51:56;16.60;;;10.60;;
61938;SDS011;47897;50.322;18.892;2023-03-17T15:54:22;14.80;;;11.90;;
61938;SDS011;47897;50.322;18.892;2023-03-17T15:56:49;16.00;;;10.70;;
61938;SDS011;47897;50.322;18.892;2023-03-17T15:59:16;26.50;;;16.50;;
61938;SDS011;47897;50.322;18.892;2023-03-17T16:01:42;19.20;;;12.30;;